Terminal Aerodrome Forecast
Issued by NWS Sioux Falls, SD

Home | Current Version | Previous Version | Text Only | Print | Product List | Glossary On
Versions: 1 2 3 4 5 6 7 8 9 10 11 12 13 14 15 16 17 18 19
000
FTUS43 KFSD 170526
TAFFSD
TAF
KFSD 170526Z 1706/1806 VRB03KT P6SM FEW100
     FM170800 VRB04KT P6SM SCT015 SCT100
     FM171500 07005KT P6SM SCT100
     FM180200 10005KT P6SM BKN100=

USA.gov is the U.S. government's official web portal to all federal, state and local government web resources and services.